createdAt,value
2016-08-21T00:00:12.050Z,99.99
2016-08-21T00:01:11.837Z,99.99
2016-08-21T00:02:11.824Z,99.99
2016-08-21T00:03:11.837Z,99.99
2016-08-21T00:04:11.826Z,99.99
2016-08-21T00:05:12.815Z,99.99
2016-08-21T00:06:11.858Z,99.99
2016-08-21T00:07:11.827Z,99.99
2016-08-21T00:08:11.843Z,99.99
2016-08-21T00:09:11.869Z,99.99
2016-08-21T00:10:12.071Z,99.99
2016-08-21T00:11:11.843Z,99.99
2016-08-21T00:12:11.830Z,99.99
2016-08-21T00:13:11.844Z,99.99
2016-08-21T00:14:12.902Z,99.99
2016-08-21T00:15:12.807Z,99.99
2016-08-21T00:16:11.876Z,99.99
2016-08-21T00:17:11.847Z,99.99
2016-08-21T00:18:12.618Z,99.99
2016-08-21T00:19:11.876Z,99.99
2016-08-21T00:20:12.777Z,99.99
2016-08-21T00:21:11.849Z,99.99
2016-08-21T00:22:11.849Z,99.99
2016-08-21T00:23:11.852Z,99.99
2016-08-21T00:24:11.853Z,99.87
2016-08-21T00:25:12.874Z,99.58
2016-08-21T00:26:11.856Z,99.58
2016-08-21T00:27:11.853Z,99.67
2016-08-21T00:28:11.860Z,99.19
2016-08-21T00:29:11.855Z,99
2016-08-21T00:30:12.032Z,99.38
2016-08-21T00:31:11.855Z,98.91
2016-08-21T00:32:11.852Z,99.19
2016-08-21T00:33:11.854Z,99.38
2016-08-21T00:34:11.854Z,99.19
2016-08-21T00:35:12.872Z,99.58
2016-08-21T00:36:11.861Z,99.87
2016-08-21T00:37:11.857Z,99.87
2016-08-21T00:38:11.857Z,99.99
2016-08-21T00:39:11.861Z,99.99
2016-08-21T00:40:12.800Z,99.58
2016-08-21T00:41:11.856Z,99.19
2016-08-21T00:42:11.862Z,99.58
2016-08-21T00:43:11.859Z,99.67
2016-08-21T00:44:11.861Z,99.99
2016-08-21T00:45:12.802Z,99.99
2016-08-21T00:46:11.893Z,99.67
2016-08-21T00:47:11.865Z,99.38
2016-08-21T00:48:11.863Z,99.38
2016-08-21T00:49:11.864Z,99.19
2016-08-21T00:50:12.802Z,98.91
2016-08-21T00:51:11.868Z,99.58
2016-08-21T00:52:11.864Z,99.77
2016-08-21T00:53:11.871Z,99.99
2016-08-21T00:54:11.867Z,99.99
2016-08-21T00:55:12.808Z,99.99
2016-08-21T00:56:11.887Z,99.99
2016-08-21T00:57:11.888Z,99.99
2016-08-21T00:58:11.873Z,99.99
2016-08-21T00:59:11.922Z,99.99
2016-08-21T01:00:12.924Z,99.99
2016-08-21T01:01:11.876Z,99.99
2016-08-21T01:02:11.895Z,99.99
2016-08-21T01:03:11.878Z,99.99
2016-08-21T01:04:11.881Z,99.99
2016-08-21T01:05:12.120Z,99.99
2016-08-21T01:06:11.880Z,99.99
2016-08-21T01:07:11.893Z,99.99
2016-08-21T01:08:11.881Z,99.99
2016-08-21T01:09:11.895Z,99.99
2016-08-21T01:10:12.824Z,99.99
2016-08-21T01:11:11.888Z,99.99
2016-08-21T01:12:11.894Z,99.91
2016-08-21T01:13:11.892Z,99.99
2016-08-21T01:14:11.904Z,99.52
2016-08-21T01:15:12.910Z,99.62
2016-08-21T01:16:11.899Z,99.99
2016-08-21T01:17:11.898Z,99.99
2016-08-21T01:18:11.896Z,99.99
2016-08-21T01:19:11.906Z,99.99
2016-08-21T01:20:12.869Z,99.99
2016-08-21T01:21:11.903Z,99.99
2016-08-21T01:22:11.900Z,99.99
2016-08-21T01:23:11.900Z,99.99
2016-08-21T01:24:11.902Z,99.99
2016-08-21T01:25:12.133Z,99.99
2016-08-21T01:26:11.906Z,99.99
2016-08-21T01:27:11.904Z,99.99
2016-08-21T01:28:11.902Z,99.99
2016-08-21T01:29:11.908Z,99.99
2016-08-21T01:30:12.079Z,98.33
2016-08-21T01:31:11.910Z,98.95
2016-08-21T01:32:11.906Z,98.76
2016-08-21T01:33:11.907Z,98.76
2016-08-21T01:34:11.918Z,99.33
2016-08-21T01:35:12.835Z,98.76
2016-08-21T01:36:11.906Z,98.19
2016-08-21T01:37:11.919Z,98.19
2016-08-21T01:38:11.911Z,98
2016-08-21T01:39:11.920Z,97.61
2016-08-21T01:40:12.137Z,97.9
2016-08-21T01:41:11.911Z,97.42
2016-08-21T01:42:11.920Z,96.56
2016-08-21T01:43:11.912Z,97.52
2016-08-21T01:44:11.922Z,98.28
2016-08-21T01:45:12.843Z,98.38
2016-08-21T01:46:11.925Z,99.33
2016-08-21T01:47:11.926Z,99.15
2016-08-21T01:48:11.930Z,98.95
2016-08-21T01:49:11.927Z,97.23
2016-08-21T01:50:12.842Z,96.47
2016-08-21T01:51:11.928Z,96.27
2016-08-21T01:52:11.928Z,96.27
2016-08-21T01:53:11.927Z,95.89
2016-08-21T01:54:11.928Z,95.98
2016-08-21T01:55:12.141Z,96.66
2016-08-21T01:56:11.939Z,95.61
2016-08-21T01:57:11.930Z,95.22
2016-08-21T01:58:11.929Z,94.84
2016-08-21T01:59:12.122Z,94.65
2016-08-21T02:00:12.142Z,95.03
2016-08-21T02:01:11.932Z,95.03
2016-08-21T02:02:11.933Z,94.74
2016-08-21T02:03:11.933Z,94.45
2016-08-21T02:04:11.939Z,93.98
2016-08-21T02:05:12.950Z,94.07
2016-08-21T02:06:11.938Z,94.84
2016-08-21T02:07:11.937Z,93.59
2016-08-21T02:08:11.939Z,94.45
2016-08-21T02:09:11.944Z,94.65
2016-08-21T02:10:12.857Z,94.36
2016-08-21T02:11:11.939Z,94.65
2016-08-21T02:12:11.927Z,94.17
2016-08-21T02:13:11.930Z,94.84
2016-08-21T02:14:11.926Z,95.03
2016-08-21T02:15:12.964Z,95.03
2016-08-21T02:16:11.929Z,94.36
2016-08-21T02:17:11.940Z,94.93
2016-08-21T02:18:11.931Z,94.26
2016-08-21T02:19:11.930Z,94.36
2016-08-21T02:20:12.156Z,94.07
2016-08-21T02:21:11.943Z,92.63
2016-08-21T02:22:11.929Z,93.3
2016-08-21T02:23:11.932Z,93.21
2016-08-21T02:24:11.931Z,93.4
2016-08-21T02:25:12.948Z,93.5
2016-08-21T02:26:11.934Z,94.26
2016-08-21T02:27:11.932Z,93.79
2016-08-21T02:28:11.935Z,92.63
2016-08-21T02:29:11.934Z,93.21
2016-08-21T02:30:12.120Z,93.59
2016-08-21T02:31:11.942Z,93.12
2016-08-21T02:32:11.935Z,93.12
2016-08-21T02:33:11.935Z,93.59
2016-08-21T02:34:11.938Z,93.59
2016-08-21T02:35:12.884Z,93.69
2016-08-21T02:36:11.941Z,93.5
2016-08-21T02:37:11.941Z,94.45
2016-08-21T02:38:11.937Z,93.98
2016-08-21T02:39:11.941Z,93.5
2016-08-21T02:40:12.187Z,94.07
2016-08-21T02:41:11.941Z,94.36
2016-08-21T02:42:11.942Z,94.26
2016-08-21T02:43:11.941Z,94.36
2016-08-21T02:44:11.944Z,94.4
2016-08-21T02:45:12.889Z,94.74
2016-08-21T02:46:11.941Z,94.45
2016-08-21T02:47:11.946Z,94.45
2016-08-21T02:48:11.946Z,94.74
2016-08-21T02:49:11.947Z,94.45
2016-08-21T02:50:12.872Z,94.84
2016-08-21T02:51:11.946Z,95.31
2016-08-21T02:52:11.948Z,94.84
2016-08-21T02:53:11.968Z,95.31
2016-08-21T02:54:11.945Z,95.12
2016-08-21T02:55:12.898Z,95.31
2016-08-21T02:56:11.951Z,94.36
2016-08-21T02:57:11.947Z,94.93
2016-08-21T02:58:12.154Z,94.55
2016-08-21T02:59:12.008Z,94.84
2016-08-21T03:00:12.160Z,94.74
2016-08-21T03:01:11.951Z,95.03
2016-08-21T03:02:11.954Z,95.12
2016-08-21T03:03:11.953Z,94.65
2016-08-21T03:04:11.955Z,94.55
2016-08-21T03:05:12.909Z,94.65
2016-08-21T03:06:11.955Z,95.12
2016-08-21T03:07:11.958Z,94.17
2016-08-21T03:08:11.956Z,94.55
2016-08-21T03:09:12.016Z,93.69
2016-08-21T03:10:12.895Z,93.02
2016-08-21T03:11:11.961Z,93.59
2016-08-21T03:12:11.958Z,93.35
2016-08-21T03:13:11.960Z,93.64
2016-08-21T03:14:11.968Z,93.12
2016-08-21T03:15:12.216Z,93.64
2016-08-21T03:16:11.963Z,93.83
2016-08-21T03:17:11.963Z,93.45
2016-08-21T03:18:11.965Z,93.64
2016-08-21T03:19:11.963Z,93.93
2016-08-21T03:20:12.920Z,93.74
2016-08-21T03:21:11.965Z,94.12
2016-08-21T03:22:11.967Z,94.36
2016-08-21T03:23:11.972Z,95.22
2016-08-21T03:24:11.966Z,95.03
2016-08-21T03:25:12.908Z,94.36
2016-08-21T03:26:11.973Z,94.36
2016-08-21T03:27:11.970Z,93.3
2016-08-21T03:28:11.971Z,93.4
2016-08-21T03:29:11.972Z,94.07
2016-08-21T03:30:12.913Z,94.55
2016-08-21T03:31:11.973Z,94.45
2016-08-21T03:32:11.976Z,94.45
2016-08-21T03:33:11.975Z,94.45
2016-08-21T03:34:11.976Z,94.17
2016-08-21T03:35:12.913Z,95.12
2016-08-21T03:36:11.976Z,95.03
2016-08-21T03:37:11.977Z,94.69
2016-08-21T03:38:11.978Z,94.07
2016-08-21T03:39:11.983Z,94.31
2016-08-21T03:40:12.218Z,94.45
2016-08-21T03:41:11.981Z,94.36
2016-08-21T03:42:11.990Z,94.12
2016-08-21T03:43:11.984Z,94.31
2016-08-21T03:44:12.690Z,95.03
2016-08-21T03:45:12.937Z,94.84
2016-08-21T03:46:11.988Z,94.84
2016-08-21T03:47:11.986Z,95.17
2016-08-21T03:48:11.988Z,95.22
2016-08-21T03:49:11.986Z,95.7
2016-08-21T03:50:12.189Z,95.41
2016-08-21T03:51:11.993Z,95.31
2016-08-21T03:52:11.990Z,95.89
2016-08-21T03:53:12.006Z,95.7
2016-08-21T03:54:11.990Z,95.12
2016-08-21T03:55:12.955Z,95.12
2016-08-21T03:56:11.993Z,94.93
2016-08-21T03:57:11.994Z,94.93
2016-08-21T03:58:11.998Z,95.03
2016-08-21T03:59:12.048Z,94.93
2016-08-21T04:00:12.923Z,95.41
2016-08-21T04:01:12.008Z,95.31
2016-08-21T04:02:11.996Z,95.89
2016-08-21T04:03:11.999Z,95.79
2016-08-21T04:04:11.997Z,96.03
2016-08-21T04:05:12.250Z,95.61
2016-08-21T04:06:12.003Z,95.98
2016-08-21T04:07:11.999Z,95.46
2016-08-21T04:08:11.997Z,95.46
2016-08-21T04:09:12.008Z,94.79
2016-08-21T04:10:12.947Z,95.17
2016-08-21T04:11:12.003Z,94.89
2016-08-21T04:12:12.002Z,94.98
2016-08-21T04:13:12.001Z,94.89
2016-08-21T04:14:12.000Z,94.98
2016-08-21T04:15:12.250Z,94.6
2016-08-21T04:16:12.002Z,94.79
2016-08-21T04:17:12.001Z,94.6
2016-08-21T04:18:12.001Z,94.7
2016-08-21T04:19:11.999Z,95.27
2016-08-21T04:20:12.241Z,95.27
2016-08-21T04:21:12.006Z,95.07
2016-08-21T04:22:12.001Z,95.46
2016-08-21T04:23:12.003Z,95.94
2016-08-21T04:24:12.001Z,95.56
2016-08-21T04:25:12.953Z,95.46
2016-08-21T04:26:12.000Z,95.84
2016-08-21T04:27:12.002Z,96.13
2016-08-21T04:28:12.001Z,95.94
2016-08-21T04:29:12.002Z,95.84
2016-08-21T04:30:12.249Z,95.94
2016-08-21T04:31:12.004Z,95.94
2016-08-21T04:32:12.003Z,95.94
2016-08-21T04:33:12.005Z,95.46
2016-08-21T04:34:12.006Z,96.13
2016-08-21T04:35:12.745Z,95.94
2016-08-21T04:36:12.004Z,95.75
2016-08-21T04:37:12.005Z,95.94
2016-08-21T04:38:12.008Z,96.61
2016-08-21T04:39:12.004Z,96.61
2016-08-21T04:40:12.943Z,96.7
2016-08-21T04:41:12.022Z,96.51
2016-08-21T04:42:12.008Z,97.18
2016-08-21T04:43:12.022Z,96.61
2016-08-21T04:44:12.012Z,96.61
2016-08-21T04:45:12.886Z,96.61
2016-08-21T04:46:12.005Z,96.7
2016-08-21T04:47:12.009Z,97.08
2016-08-21T04:48:12.008Z,97.47
2016-08-21T04:49:12.008Z,97.37
2016-08-21T04:50:12.937Z,97.47
2016-08-21T04:51:12.010Z,98.71
2016-08-21T04:52:12.013Z,98.04
2016-08-21T04:53:12.012Z,98.52
2016-08-21T04:54:12.720Z,97.85
2016-08-21T04:55:12.256Z,97.66
2016-08-21T04:56:12.016Z,97.75
2016-08-21T04:57:12.010Z,97.28
2016-08-21T04:58:12.014Z,97.18
2016-08-21T04:59:12.076Z,95.84
2016-08-21T05:00:12.951Z,95.61
2016-08-21T05:01:12.010Z,94.84
2016-08-21T05:02:12.013Z,93.02
2016-08-21T05:03:12.017Z,91.82
2016-08-21T05:04:12.015Z,91.44
2016-08-21T05:05:12.221Z,90.81
2016-08-21T05:06:12.018Z,89.28
2016-08-21T05:07:12.019Z,87.31
2016-08-21T05:08:12.020Z,85.3
2016-08-21T05:09:12.021Z,84.38
2016-08-21T05:10:12.954Z,83.23
2016-08-21T05:11:12.021Z,82.41
2016-08-21T05:12:12.022Z,81.84
2016-08-21T05:13:12.024Z,80.63
2016-08-21T05:14:12.027Z,79.38
2016-08-21T05:15:12.978Z,79.09
2016-08-21T05:16:12.028Z,78.61
2016-08-21T05:17:12.033Z,77.4
2016-08-21T05:18:12.036Z,76.15
2016-08-21T05:19:12.045Z,76.19
2016-08-21T05:20:13.027Z,75.62
2016-08-21T05:21:12.043Z,74.27
2016-08-21T05:22:12.045Z,74.6
2016-08-21T05:23:12.047Z,74.5
2016-08-21T05:24:12.054Z,74.27
2016-08-21T05:25:13.009Z,75.23
2016-08-21T05:26:12.057Z,76.39
2016-08-21T05:27:12.061Z,77.69
2016-08-21T05:28:12.063Z,79.47
2016-08-21T05:29:12.066Z,79.96
2016-08-21T05:30:13.009Z,81.26
2016-08-21T05:31:12.080Z,81.64
2016-08-21T05:32:12.083Z,82.7
2016-08-21T05:33:12.076Z,83.91
2016-08-21T05:34:12.080Z,83.52
2016-08-21T05:35:13.050Z,83.91
2016-08-21T05:36:12.095Z,83.23
2016-08-21T05:37:12.092Z,81.64
2016-08-21T05:38:12.096Z,79.67
2016-08-21T05:39:12.798Z,78.52
2016-08-21T05:40:13.054Z,78.23
2016-08-21T05:41:12.104Z,78.8
2016-08-21T05:42:12.096Z,79.09
2016-08-21T05:43:12.106Z,78.32
2016-08-21T05:44:12.103Z,78.7
2016-08-21T05:45:12.372Z,79.47
2016-08-21T05:46:12.109Z,79.67
2016-08-21T05:47:12.112Z,80.68
2016-08-21T05:48:12.113Z,80.73
2016-08-21T05:49:12.118Z,80.43
2016-08-21T05:50:12.443Z,79.57
2016-08-21T05:51:12.124Z,79.47
2016-08-21T05:52:12.130Z,79.76
2016-08-21T05:53:12.127Z,80.53
2016-08-21T05:54:12.129Z,80.97
2016-08-21T05:55:13.102Z,80.73
2016-08-21T05:56:12.134Z,79.47
2016-08-21T05:57:12.139Z,78.36
2016-08-21T05:58:12.140Z,76.09
2016-08-21T05:59:12.197Z,75.52
2016-08-21T06:00:12.404Z,75.62
2016-08-21T06:01:12.148Z,75.71
2016-08-21T06:02:12.151Z,76.86
2016-08-21T06:03:12.151Z,77.34
2016-08-21T06:04:12.156Z,78.65
2016-08-21T06:05:13.109Z,79.52
2016-08-21T06:06:12.162Z,79.47
2016-08-21T06:07:12.165Z,79.96
2016-08-21T06:08:12.164Z,80.68
2016-08-21T06:09:12.181Z,81.93
2016-08-21T06:10:13.128Z,82.79
2016-08-21T06:11:12.181Z,82.6
2016-08-21T06:12:12.184Z,83.37
2016-08-21T06:13:12.187Z,82.79
2016-08-21T06:14:12.181Z,82.89
2016-08-21T06:15:13.131Z,82.7
2016-08-21T06:16:12.194Z,80.82
2016-08-21T06:17:12.194Z,80.73
2016-08-21T06:18:12.198Z,80.91
2016-08-21T06:19:12.197Z,79.96
2016-08-21T06:20:13.218Z,80.24
2016-08-21T06:21:12.199Z,79.86
2016-08-21T06:22:12.205Z,80.82
2016-08-21T06:23:12.203Z,79.47
2016-08-21T06:24:12.205Z,77.31
2016-08-21T06:25:13.177Z,74.08
2016-08-21T06:26:12.215Z,71.75
2016-08-21T06:27:12.219Z,69.57
2016-08-21T06:28:12.219Z,68
2016-08-21T06:29:12.220Z,65.14
2016-08-21T06:30:13.195Z,63.06
2016-08-21T06:31:12.229Z,62.79
2016-08-21T06:32:12.237Z,60.99
2016-08-21T06:33:12.233Z,60.25
2016-08-21T06:34:12.252Z,58.83
2016-08-21T06:35:13.174Z,60.38
2016-08-21T06:36:12.256Z,60.64
2016-08-21T06:37:12.254Z,60.8
2016-08-21T06:38:12.264Z,61.67
2016-08-21T06:39:12.267Z,63.09
2016-08-21T06:40:13.191Z,64.11
2016-08-21T06:41:12.273Z,65.53
2016-08-21T06:42:12.274Z,66.3
2016-08-21T06:43:12.280Z,68.48
2016-08-21T06:44:12.285Z,68.93
2016-08-21T06:45:13.218Z,69.85
2016-08-21T06:46:12.292Z,70.15
2016-08-21T06:47:13.008Z,71.11
2016-08-21T06:48:12.301Z,71.94
2016-08-21T06:49:12.303Z,73.57
2016-08-21T06:50:13.298Z,73.73
2016-08-21T06:51:12.317Z,75.17
2016-08-21T06:52:12.325Z,74.79
2016-08-21T06:53:12.320Z,74.85
2016-08-21T06:54:12.327Z,74.85
2016-08-21T06:55:13.178Z,75.32
2016-08-21T06:56:12.328Z,75.81
2016-08-21T06:57:12.332Z,76.39
2016-08-21T06:58:12.333Z,75.81
2016-08-21T06:59:13.099Z,76.67
2016-08-21T07:00:13.283Z,76.39
2016-08-21T07:01:12.341Z,76.77
2016-08-21T07:02:12.352Z,76.09
2016-08-21T07:03:12.348Z,75.62
2016-08-21T07:04:12.376Z,76.67
2016-08-21T07:05:13.227Z,76.86
2016-08-21T07:06:12.359Z,77.06
2016-08-21T07:07:12.362Z,77.53
2016-08-21T07:08:12.363Z,76.96
2016-08-21T07:09:12.366Z,76.19
2016-08-21T07:10:13.330Z,76
2016-08-21T07:11:12.374Z,76
2016-08-21T07:12:12.372Z,75.52
2016-08-21T07:13:12.379Z,75.52
2016-08-21T07:14:12.382Z,75.81
2016-08-21T07:15:13.279Z,75.62
2016-08-21T07:16:12.387Z,75.32
2016-08-21T07:17:12.390Z,73.5
2016-08-21T07:18:12.391Z,73.35
2016-08-21T07:19:12.395Z,71.91
2016-08-21T07:20:13.360Z,70.59
2016-08-21T07:21:12.410Z,70.05
2016-08-21T07:22:12.413Z,69.85
2016-08-21T07:23:12.411Z,68.54
2016-08-21T07:24:12.416Z,66.07
2016-08-21T07:25:13.391Z,63.6
2016-08-21T07:26:12.417Z,60.77
2016-08-21T07:27:12.421Z,57.64
2016-08-21T07:28:12.436Z,54.9
2016-08-21T07:29:12.432Z,53.47
2016-08-21T07:30:13.333Z,53.14
2016-08-21T07:31:12.439Z,53.07
2016-08-21T07:32:12.443Z,53.91
2016-08-21T07:33:12.448Z,55.15
2016-08-21T07:34:12.461Z,55.99
2016-08-21T07:35:12.721Z,57.21
2016-08-21T07:36:12.472Z,58.83
2016-08-21T07:37:12.470Z,60.54
2016-08-21T07:38:12.474Z,61.06
2016-08-21T07:39:12.476Z,62.48
2016-08-21T07:40:13.432Z,63.24
2016-08-21T07:41:12.484Z,63.41
2016-08-21T07:42:12.489Z,63.79
2016-08-21T07:43:12.493Z,64.66
2016-08-21T07:44:12.497Z,65.78
2016-08-21T07:45:13.474Z,64.82
2016-08-21T07:46:12.510Z,64.18
2016-08-21T07:47:12.510Z,60.64
2016-08-21T07:48:12.513Z,58.19
2016-08-21T07:49:12.522Z,56.87
2016-08-21T07:50:12.781Z,54.87
2016-08-21T07:51:12.542Z,54.13
2016-08-21T07:52:12.530Z,53.57
2016-08-21T07:53:12.536Z,51.37
2016-08-21T07:54:12.542Z,50.04
2016-08-21T07:55:13.609Z,48.44
2016-08-21T07:56:12.550Z,47.5
2016-08-21T07:57:12.561Z,46.36
2016-08-21T07:58:12.559Z,45.7
2016-08-21T07:59:12.625Z,45.7
2016-08-21T08:00:13.518Z,45.41
2016-08-21T08:01:12.584Z,45.51
2016-08-21T08:02:12.597Z,45.02
2016-08-21T08:03:12.597Z,45.31
2016-08-21T08:04:12.601Z,45.21
2016-08-21T08:05:13.550Z,44.92
2016-08-21T08:06:12.611Z,45.21
2016-08-21T08:07:12.637Z,44.92
2016-08-21T08:08:12.625Z,43.88
2016-08-21T08:09:12.625Z,43.71
2016-08-21T08:10:12.687Z,44.37
2016-08-21T08:11:12.637Z,44.95
2016-08-21T08:12:12.653Z,43.59
2016-08-21T08:13:12.663Z,43.27
2016-08-21T08:14:13.371Z,42.89
2016-08-21T08:15:12.924Z,41.64
2016-08-21T08:16:12.673Z,43.08
2016-08-21T08:17:12.690Z,41.82
2016-08-21T08:18:12.693Z,41.24
2016-08-21T08:19:12.694Z,41.26
2016-08-21T08:20:12.840Z,40.29
2016-08-21T08:21:12.707Z,40.01
2016-08-21T08:22:12.714Z,39.65
2016-08-21T08:23:12.720Z,39.06
2016-08-21T08:24:12.726Z,38.67
2016-08-21T08:25:12.733Z,38.87
2016-08-21T08:26:12.739Z,39.16
2016-08-21T08:27:12.748Z,39.06
2016-08-21T08:28:12.759Z,38.5
2016-08-21T08:29:12.773Z,38.79
2016-08-21T08:30:12.778Z,40.03
2016-08-21T08:31:12.779Z,39.36
2016-08-21T08:32:12.781Z,39.92
2016-08-21T08:33:12.789Z,38.65
2016-08-21T08:34:12.794Z,37.49
2016-08-21T08:35:12.804Z,37.49
2016-08-21T08:36:12.815Z,36.44
2016-08-21T08:37:12.818Z,35.58
2016-08-21T08:38:12.837Z,35.29
2016-08-21T08:39:13.549Z,35.39
2016-08-21T08:40:12.836Z,36.36
2016-08-21T08:41:12.844Z,37.7
2016-08-21T08:42:12.853Z,38.85
2016-08-21T08:43:12.867Z,39.78
2016-08-21T08:44:12.867Z,41.61
2016-08-21T08:45:12.878Z,43.31
2016-08-21T08:46:13.595Z,44.26
2016-08-21T08:47:12.890Z,44.72
2016-08-21T08:48:13.605Z,45.76
2016-08-21T08:49:12.904Z,46.22
2016-08-21T08:50:12.910Z,46.1
2016-08-21T08:51:12.916Z,45.72
2016-08-21T08:52:12.920Z,45.59
2016-08-21T08:53:12.929Z,46.17
2016-08-21T08:54:12.932Z,46.56
2016-08-21T08:55:12.943Z,46.54
2016-08-21T08:56:12.947Z,46.44
2016-08-21T08:57:12.952Z,45.28
2016-08-21T08:58:12.958Z,44.22
2016-08-21T08:59:13.010Z,44.92
2016-08-21T09:00:12.970Z,45.01
2016-08-21T09:01:12.979Z,44.92
2016-08-21T09:02:12.990Z,44.42
2016-08-21T09:03:12.984Z,44.63
2016-08-21T09:04:12.999Z,45.31
2016-08-21T09:05:12.997Z,46.15
2016-08-21T09:06:13.011Z,46.15
2016-08-21T09:07:13.210Z,46.56
2016-08-21T09:08:13.007Z,45.79
2016-08-21T09:09:13.017Z,45.5
2016-08-21T09:10:13.158Z,46.17
2016-08-21T09:11:13.025Z,45.33
2016-08-21T09:12:13.028Z,44.94
2016-08-21T09:13:13.034Z,45.04
2016-08-21T09:14:13.065Z,43.68
2016-08-21T09:15:13.042Z,43.95
2016-08-21T09:16:13.048Z,43.18
2016-08-21T09:17:13.050Z,43.2
2016-08-21T09:18:13.062Z,43.76
2016-08-21T09:19:13.066Z,44.84
2016-08-21T09:20:13.065Z,43.76
2016-08-21T09:21:13.070Z,41.08
2016-08-21T09:22:13.786Z,41.44
2016-08-21T09:23:13.079Z,42.41
2016-08-21T09:24:13.083Z,43.57
2016-08-21T09:25:13.088Z,44.73
2016-08-21T09:26:13.094Z,44.63
2016-08-21T09:27:13.101Z,45.5
2016-08-21T09:28:13.102Z,45.31
2016-08-21T09:29:13.114Z,45.11
2016-08-21T09:30:13.118Z,45.31
2016-08-21T09:31:13.114Z,45.31
2016-08-21T09:32:13.121Z,45.31
2016-08-21T09:33:13.369Z,45.69
2016-08-21T09:34:13.136Z,45.11
2016-08-21T09:35:13.134Z,45.31
2016-08-21T09:36:13.160Z,45.21
2016-08-21T09:37:13.142Z,46.15
2016-08-21T09:38:13.148Z,46.73
2016-08-21T09:39:13.161Z,47.67
2016-08-21T09:40:13.416Z,47.96
2016-08-21T09:41:13.175Z,47.36
2016-08-21T09:42:13.162Z,48.71
2016-08-21T09:43:13.174Z,48.71
2016-08-21T09:44:13.183Z,48.61
2016-08-21T09:45:13.903Z,49.46
2016-08-21T09:46:13.186Z,49.55
2016-08-21T09:47:13.186Z,50.04
2016-08-21T09:48:13.188Z,50.21
2016-08-21T09:49:13.194Z,51.46
2016-08-21T09:50:13.909Z,52.61
2016-08-21T09:51:13.207Z,52.13
2016-08-21T09:52:13.203Z,52.52
2016-08-21T09:53:13.207Z,50.69
2016-08-21T09:54:13.213Z,51.07
2016-08-21T09:55:13.212Z,51.17
2016-08-21T09:56:13.240Z,51.46
2016-08-21T09:57:13.238Z,50.98
2016-08-21T09:58:13.237Z,50.69
2016-08-21T09:59:13.380Z,50.59
2016-08-21T10:00:13.243Z,50.21
2016-08-21T10:01:13.243Z,51.65
2016-08-21T10:02:13.245Z,50.13
2016-08-21T10:03:13.243Z,48.88
2016-08-21T10:04:13.247Z,49.1
2016-08-21T10:05:13.251Z,48.03
2016-08-21T10:06:13.252Z,46.2
2016-08-21T10:07:13.258Z,46.4
2016-08-21T10:08:13.259Z,44.49
2016-08-21T10:09:13.970Z,43.72
2016-08-21T10:10:13.271Z,44.56
2016-08-21T10:11:13.274Z,45.34
2016-08-21T10:12:13.275Z,46.4
2016-08-21T10:13:13.279Z,45.24
2016-08-21T10:14:13.282Z,46.49
2016-08-21T10:15:13.288Z,46.3
2016-08-21T10:16:13.290Z,45.26
2016-08-21T10:17:13.294Z,45.04
2016-08-21T10:18:13.298Z,45.62
2016-08-21T10:19:13.307Z,45.34
2016-08-21T10:20:13.311Z,44.95
2016-08-21T10:21:13.314Z,44.49
2016-08-21T10:22:13.318Z,44.49
2016-08-21T10:23:13.322Z,44.87
2016-08-21T10:24:13.322Z,45.26
2016-08-21T10:25:13.331Z,43.91
2016-08-21T10:26:13.345Z,43.06
2016-08-21T10:27:13.333Z,42.29
2016-08-21T10:28:13.335Z,41.33
2016-08-21T10:29:13.338Z,41.3
2016-08-21T10:30:13.342Z,41.4
2016-08-21T10:31:13.346Z,41.69
2016-08-21T10:32:13.349Z,41.2
2016-08-21T10:33:13.367Z,41.11
2016-08-21T10:34:13.368Z,40.72
2016-08-21T10:35:13.361Z,41.28
2016-08-21T10:36:13.365Z,41.09
2016-08-21T10:37:13.364Z,41.28
2016-08-21T10:38:13.371Z,41.57
2016-08-21T10:39:13.381Z,41.48
2016-08-21T10:40:13.385Z,41.19
2016-08-21T10:41:13.388Z,40.7
2016-08-21T10:42:13.388Z,40.51
2016-08-21T10:43:13.391Z,39.86
2016-08-21T10:44:13.391Z,40.05
2016-08-21T10:45:13.396Z,39.95
2016-08-21T10:46:13.399Z,40.82
2016-08-21T10:47:13.414Z,39.76
2016-08-21T10:48:13.406Z,39.59
2016-08-21T10:49:13.411Z,38.91
2016-08-21T10:50:13.418Z,38.53
2016-08-21T10:51:13.425Z,38.23
2016-08-21T10:52:13.421Z,37.38
2016-08-21T10:53:14.132Z,36.52
2016-08-21T10:54:13.430Z,35.55
2016-08-21T10:55:13.444Z,34.87
2016-08-21T10:56:13.437Z,34.78
2016-08-21T10:57:13.449Z,35.44
2016-08-21T10:58:13.450Z,35.44
2016-08-21T10:59:14.203Z,35.92
2016-08-21T11:00:13.457Z,35.92
2016-08-21T11:01:13.454Z,35.84
2016-08-21T11:02:13.460Z,35.84
2016-08-21T11:03:13.461Z,35.45
2016-08-21T11:04:13.471Z,35.36
2016-08-21T11:05:13.473Z,35.36
2016-08-21T11:06:13.473Z,35.16
2016-08-21T11:07:13.481Z,35.72
2016-08-21T11:08:13.484Z,35.63
2016-08-21T11:09:13.485Z,35.34
2016-08-21T11:10:13.489Z,36.21
2016-08-21T11:11:13.496Z,35.92
2016-08-21T11:12:13.500Z,35.34
2016-08-21T11:13:13.506Z,36.11
2016-08-21T11:14:13.503Z,35.26
2016-08-21T11:15:13.526Z,35.16
2016-08-21T11:16:13.516Z,35.55
2016-08-21T11:17:13.517Z,35.36
2016-08-21T11:18:13.521Z,35.94
2016-08-21T11:19:13.526Z,35.64
2016-08-21T11:20:13.529Z,35.37
2016-08-21T11:21:13.536Z,34.6
2016-08-21T11:22:13.540Z,34.31
2016-08-21T11:23:13.541Z,34.71
2016-08-21T11:24:13.549Z,35.28
2016-08-21T11:25:13.556Z,35.37
2016-08-21T11:26:13.562Z,36.34
2016-08-21T11:27:13.560Z,36.63
2016-08-21T11:28:13.567Z,37.21
2016-08-21T11:29:13.568Z,37.3
2016-08-21T11:30:13.573Z,37.5
2016-08-21T11:31:13.579Z,37.88
2016-08-21T11:32:13.579Z,38.08
2016-08-21T11:33:13.588Z,38.45
2016-08-21T11:34:13.589Z,38.93
2016-08-21T11:35:13.594Z,38.62
2016-08-21T11:36:13.597Z,39.01
2016-08-21T11:37:13.603Z,39.51
2016-08-21T11:38:13.609Z,39.41
2016-08-21T11:39:13.613Z,37.48
2016-08-21T11:40:13.614Z,36.61
2016-08-21T11:41:13.632Z,36.52
2016-08-21T11:42:13.632Z,35.64
2016-08-21T11:43:13.633Z,36.22
2016-08-21T11:44:13.634Z,36.53
2016-08-21T11:45:13.642Z,37.3
2016-08-21T11:46:13.640Z,37
2016-08-21T11:47:13.644Z,36.8
2016-08-21T11:48:13.655Z,37.1
2016-08-21T11:49:13.659Z,36.61
2016-08-21T11:50:13.656Z,36.42
2016-08-21T11:51:13.661Z,37
2016-08-21T11:52:13.672Z,37.19
2016-08-21T11:53:13.675Z,37.38
2016-08-21T11:54:13.672Z,37.29
2016-08-21T11:55:13.677Z,38.35
2016-08-21T11:56:13.682Z,36.8
2016-08-21T11:57:13.697Z,35.84
2016-08-21T11:58:13.700Z,35.08
2016-08-21T11:59:13.751Z,35.37
2016-08-21T12:00:13.699Z,34.5
2016-08-21T12:01:13.700Z,35.57
2016-08-21T12:02:13.706Z,35.74
2016-08-21T12:03:13.715Z,36.44
2016-08-21T12:04:13.715Z,35.36
2016-08-21T12:05:13.717Z,36.32
2016-08-21T12:06:13.724Z,36.22
2016-08-21T12:07:13.728Z,35.94
2016-08-21T12:08:13.729Z,36.22
2016-08-21T12:09:13.736Z,34.79
2016-08-21T12:10:13.740Z,34.5
2016-08-21T12:11:13.746Z,34.41
2016-08-21T12:12:13.752Z,34.41
2016-08-21T12:13:13.750Z,34.41
2016-08-21T12:14:13.763Z,34.21
2016-08-21T12:15:13.768Z,33.75
2016-08-21T12:16:13.771Z,34.42
2016-08-21T12:17:13.780Z,34.6
2016-08-21T12:18:13.776Z,34.99
2016-08-21T12:19:13.780Z,35.95
2016-08-21T12:20:13.786Z,35.37
2016-08-21T12:21:13.787Z,35.08
2016-08-21T12:22:13.796Z,35.28
2016-08-21T12:23:13.798Z,34.89
2016-08-21T12:24:13.805Z,34.99
2016-08-21T12:25:13.805Z,34.7
2016-08-21T12:26:13.809Z,33.92
2016-08-21T12:27:13.815Z,33.07
2016-08-21T12:28:13.816Z,32.97
2016-08-21T12:29:13.843Z,33.26
2016-08-21T12:30:13.826Z,33.36
2016-08-21T12:31:13.830Z,32.39
2016-08-21T12:32:13.841Z,31.83
2016-08-21T12:33:13.995Z,31.33
2016-08-21T12:34:14.557Z,31.63
2016-08-21T12:35:13.848Z,30.86
2016-08-21T12:36:13.853Z,30.76
2016-08-21T12:37:13.867Z,30.47
2016-08-21T12:38:13.868Z,30.65
2016-08-21T12:39:13.892Z,30.27
2016-08-21T12:40:14.593Z,30.94
2016-08-21T12:41:13.877Z,31.89
2016-08-21T12:42:13.883Z,32.09
2016-08-21T12:43:14.601Z,30.05
2016-08-21T12:44:13.891Z,30.35
2016-08-21T12:45:13.900Z,30.15
2016-08-21T12:46:13.899Z,30.44
2016-08-21T12:47:13.903Z,30.35
2016-08-21T12:48:13.914Z,30.35
2016-08-21T12:49:13.929Z,30.54
2016-08-21T12:50:13.923Z,30.65
2016-08-21T12:51:13.918Z,30.17
2016-08-21T12:52:13.935Z,29.97
2016-08-21T12:53:13.933Z,29.69
2016-08-21T12:54:13.933Z,29.49
2016-08-21T12:55:13.939Z,29.69